createdAt,value
2018-11-03T00:01:59.763Z,100220.65
2018-11-03T00:04:28.383Z,100216.40
2018-11-03T00:06:57.079Z,100232.85
2018-11-03T00:09:25.712Z,100226.52
2018-11-03T00:11:54.353Z,100232.09
2018-11-03T00:14:23.052Z,100238.09
2018-11-03T00:16:51.705Z,100238.19
2018-11-03T00:19:20.375Z,100254.05
2018-11-03T00:21:49.076Z,100241.76
2018-11-03T00:24:17.688Z,100242.67
2018-11-03T00:26:46.421Z,100240.91
2018-11-03T00:29:15.101Z,100247.04
2018-11-03T00:31:43.699Z,100246.80
2018-11-03T00:34:12.350Z,100250.69
2018-11-03T00:36:41.002Z,100245.55
2018-11-03T00:39:11.505Z,100244.22
2018-11-03T00:41:40.238Z,100242.17
2018-11-03T00:44:09.423Z,100234.05
2018-11-03T00:46:38.104Z,100243.80
2018-11-03T00:49:06.875Z,100239.66
2018-11-03T00:51:35.548Z,100223.13
2018-11-03T00:54:04.165Z,100218.80
2018-11-03T00:56:32.815Z,100215.38
2018-11-03T01:01:35.273Z,100211.98
2018-11-03T01:04:03.913Z,100221.84
2018-11-03T01:06:32.518Z,100220.94
2018-11-03T01:09:01.163Z,100221.88
2018-11-03T01:11:29.863Z,100228.39
2018-11-03T01:13:58.558Z,100231.86
2018-11-03T01:16:27.441Z,100227.06
2018-11-03T01:18:56.213Z,100229.59
2018-11-03T01:21:24.915Z,100235.58
2018-11-03T01:23:53.588Z,100232.70
2018-11-03T01:26:22.373Z,100234.84
2018-11-03T01:28:51.056Z,100228.52
2018-11-03T01:31:19.720Z,100223.37
2018-11-03T01:33:48.458Z,100222.95
2018-11-03T01:36:17.158Z,100226.41
2018-11-03T01:38:45.889Z,100223.77
2018-11-03T01:41:14.637Z,100220.42
2018-11-03T01:43:43.266Z,100220.92
2018-11-03T01:46:11.968Z,100216.68
2018-11-03T01:48:40.691Z,100223.88
2018-11-03T01:51:09.329Z,100231.70
2018-11-03T01:53:37.995Z,100225.78
2018-11-03T01:56:06.793Z,100224.42
2018-11-03T01:58:35.566Z,100227.42
2018-11-03T02:01:04.229Z,100227.00
2018-11-03T02:03:33.001Z,100224.54
2018-11-03T02:06:01.653Z,100226.61
2018-11-03T02:08:30.378Z,100225.36
2018-11-03T02:10:59.097Z,100233.10
2018-11-03T02:13:27.848Z,100228.00
2018-11-03T02:15:56.588Z,100226.57
2018-11-03T02:18:25.271Z,100232.33
2018-11-03T02:20:53.998Z,100235.82
2018-11-03T02:23:22.636Z,100235.75
2018-11-03T02:25:51.319Z,100241.34
2018-11-03T02:28:20.031Z,100233.61
2018-11-03T02:30:48.719Z,100235.59
2018-11-03T02:33:17.352Z,100242.16
2018-11-03T02:35:45.982Z,100242.52
2018-11-03T02:38:14.624Z,100240.27
2018-11-03T02:40:43.303Z,100233.14
2018-11-03T02:43:11.959Z,100247.27
2018-11-03T02:45:40.584Z,100247.30
2018-11-03T02:48:09.288Z,100248.94
2018-11-03T02:50:37.959Z,100260.42
2018-11-03T02:53:06.695Z,100261.42
2018-11-03T02:55:35.328Z,100258.24
2018-11-03T02:58:04.023Z,100257.50
2018-11-03T03:00:32.819Z,100257.35
2018-11-03T03:03:01.487Z,100255.36
2018-11-03T03:05:30.179Z,100259.21
2018-11-03T03:07:58.869Z,100263.42
2018-11-03T03:10:27.698Z,100262.09
2018-11-03T03:12:56.365Z,100272.05
2018-11-03T03:15:25.042Z,100273.30
2018-11-03T03:17:53.696Z,100278.97
2018-11-03T03:20:22.363Z,100283.74
2018-11-03T03:22:51.001Z,100274.80
2018-11-03T03:25:19.701Z,100275.58
2018-11-03T03:27:48.374Z,100283.71
2018-11-03T03:30:17.061Z,100284.23
2018-11-03T03:32:45.849Z,100284.63
2018-11-03T03:35:14.683Z,100292.73
2018-11-03T03:37:43.358Z,100304.77
2018-11-03T03:40:12.129Z,100303.98
2018-11-03T03:42:40.887Z,100305.27
2018-11-03T03:45:10.406Z,100293.75
2018-11-03T03:47:39.043Z,100301.42
2018-11-03T03:50:08.846Z,100310.83
2018-11-03T03:52:37.598Z,100305.70
2018-11-03T03:55:06.677Z,100296.71
2018-11-03T03:57:35.625Z,100300.17
2018-11-03T04:00:04.352Z,100303.65
2018-11-03T04:02:33.045Z,100307.47
2018-11-03T04:05:01.698Z,100313.37
2018-11-03T04:07:30.416Z,100314.25
2018-11-03T04:09:59.108Z,100305.66
2018-11-03T04:12:27.728Z,100304.31
2018-11-03T04:14:56.459Z,100297.47
2018-11-03T04:17:25.102Z,100302.14
2018-11-03T04:19:53.736Z,100303.98
2018-11-03T04:22:22.409Z,100303.95
2018-11-03T04:24:51.058Z,100300.95
2018-11-03T04:27:19.705Z,100303.09
2018-11-03T04:29:48.339Z,100323.11
2018-11-03T04:32:17.006Z,100318.53
2018-11-03T04:34:45.646Z,100314.25
2018-11-03T04:37:14.291Z,100318.53
2018-11-03T04:39:42.923Z,100311.59
2018-11-03T04:42:11.602Z,100321.52
2018-11-03T04:44:40.290Z,100317.61
2018-11-03T04:47:08.876Z,100320.18
2018-11-03T04:49:37.578Z,100320.67
2018-11-03T04:52:06.278Z,100327.52
2018-11-03T04:54:35.017Z,100333.93
2018-11-03T04:57:04.542Z,100328.86
2018-11-03T04:59:33.250Z,100326.66
2018-11-03T05:02:01.794Z,100327.52
2018-11-03T05:04:30.426Z,100328.73
2018-11-03T05:06:59.039Z,100332.55
2018-11-03T05:09:27.682Z,100338.05
2018-11-03T05:11:56.305Z,100334.27
2018-11-03T05:14:24.963Z,100339.04
2018-11-03T05:16:53.568Z,100340.81
2018-11-03T05:19:22.186Z,100342.48
2018-11-03T05:21:50.814Z,100338.73
2018-11-03T05:24:19.420Z,100336.08
2018-11-03T05:26:48.013Z,100341.70
2018-11-03T05:29:16.628Z,100337.39
2018-11-03T05:31:45.221Z,100348.97
2018-11-03T05:34:13.890Z,100342.15
2018-11-03T05:36:42.538Z,100342.15
2018-11-03T05:39:12.381Z,100339.55
2018-11-03T05:41:41.680Z,100342.95
2018-11-03T05:44:10.581Z,100342.98
2018-11-03T05:46:39.785Z,100344.72
2018-11-03T05:49:08.370Z,100343.80
2018-11-03T05:51:37.570Z,100353.24
2018-11-03T05:54:06.899Z,100362.23
2018-11-03T05:56:35.579Z,100360.59
2018-11-03T05:59:04.715Z,100365.67
2018-11-03T06:01:33.365Z,100370.44
2018-11-03T06:04:02.106Z,100365.28
2018-11-03T06:06:31.022Z,100376.83
2018-11-03T06:08:59.807Z,100376.85
2018-11-03T06:11:30.912Z,100397.46
2018-11-03T06:13:59.562Z,100396.61
2018-11-03T06:16:28.352Z,100405.61
2018-11-03T06:18:57.118Z,100405.59
2018-11-03T06:21:25.881Z,100423.14
2018-11-03T06:23:56.219Z,100408.65
2018-11-03T06:26:24.900Z,100441.59
2018-11-03T06:28:53.678Z,100414.61
2018-11-03T06:31:22.541Z,100415.50
2018-11-03T06:33:51.227Z,100422.88
2018-11-03T06:36:19.934Z,100424.98
2018-11-03T06:38:48.594Z,100420.20
2018-11-03T06:41:17.556Z,100434.59
2018-11-03T06:43:46.433Z,100440.52
2018-11-03T06:46:15.178Z,100460.60
2018-11-03T06:48:44.181Z,100466.89
2018-11-03T06:51:12.826Z,100438.81
2018-11-03T06:53:41.532Z,100445.59
2018-11-03T06:56:10.257Z,100452.37
2018-11-03T06:58:38.890Z,100452.39
2018-11-03T07:01:07.542Z,100455.36
2018-11-03T07:03:36.182Z,100450.68
2018-11-03T07:06:04.867Z,100458.41
2018-11-03T07:08:33.555Z,100481.53
2018-11-03T07:11:02.186Z,100464.98
2018-11-03T07:13:30.853Z,100471.34
2018-11-03T07:15:59.514Z,100463.28
2018-11-03T07:18:28.210Z,100454.75
2018-11-03T07:20:56.876Z,100459.00
2018-11-03T07:23:25.535Z,100461.02
2018-11-03T07:25:54.161Z,100458.73
2018-11-03T07:28:22.817Z,100466.44
2018-11-03T07:30:51.509Z,100475.02
2018-11-03T07:33:20.111Z,100470.72
2018-11-03T07:35:48.894Z,100480.16
2018-11-03T07:38:17.549Z,100485.75
2018-11-03T07:40:46.224Z,100482.73
2018-11-03T07:43:14.849Z,100484.44
2018-11-03T07:45:43.552Z,100482.25
2018-11-03T07:48:12.177Z,100468.50
2018-11-03T07:50:40.788Z,100459.45
2018-11-03T07:53:09.452Z,100453.38
2018-11-03T07:55:38.098Z,100458.20
2018-11-03T07:58:06.746Z,100456.13
2018-11-03T08:00:35.485Z,100453.20
2018-11-03T08:03:04.081Z,100462.95
2018-11-03T08:05:32.719Z,100468.36
2018-11-03T08:08:01.552Z,100475.73
2018-11-03T08:10:30.179Z,100470.56
2018-11-03T08:12:58.742Z,100462.95
2018-11-03T08:15:27.393Z,100474.72
2018-11-03T08:17:56.030Z,100482.86
2018-11-03T08:20:24.649Z,100484.00
2018-11-03T08:22:53.309Z,100483.51
2018-11-03T08:25:21.967Z,100501.14
2018-11-03T08:27:50.725Z,100491.69
2018-11-03T08:30:19.549Z,100494.19
2018-11-03T08:32:48.256Z,100495.44
2018-11-03T08:35:16.959Z,100489.69
2018-11-03T08:37:45.673Z,100488.91
2018-11-03T08:40:14.372Z,100478.57
2018-11-03T08:42:43.111Z,100483.24
2018-11-03T08:45:12.185Z,100487.66
2018-11-03T08:47:40.852Z,100482.43
2018-11-03T08:50:11.119Z,100472.73
2018-11-03T08:52:39.901Z,100472.73
2018-11-03T08:55:09.710Z,100480.58
2018-11-03T08:57:38.433Z,100480.15
2018-11-03T09:00:10.369Z,100481.39
2018-11-03T09:02:39.206Z,100491.00
2018-11-03T09:05:08.460Z,100489.16
2018-11-03T09:07:43.791Z,100492.72
2018-11-03T09:10:13.638Z,100489.63
2018-11-03T09:12:42.391Z,100483.10
2018-11-03T09:15:12.501Z,100492.92
2018-11-03T09:17:42.038Z,100497.56
2018-11-03T09:20:11.988Z,100494.64
2018-11-03T09:22:40.863Z,100495.54
2018-11-03T09:25:14.551Z,100497.66
2018-11-03T09:27:43.782Z,100486.86
2018-11-03T09:30:17.389Z,100484.28
2018-11-03T09:32:46.046Z,100488.48
2018-11-03T09:35:15.557Z,100490.85
2018-11-03T09:37:44.257Z,100496.81
2018-11-03T09:40:15.306Z,100493.64
2018-11-03T09:42:45.077Z,100483.34
2018-11-03T09:45:19.289Z,100482.35
2018-11-03T09:47:47.962Z,100476.83
2018-11-03T09:50:16.816Z,100472.96
2018-11-03T09:52:45.602Z,100476.33
2018-11-03T09:55:16.132Z,100472.79
2018-11-03T09:57:45.079Z,100467.44
2018-11-03T10:00:16.338Z,100468.00
2018-11-03T10:02:45.783Z,100463.98
2018-11-03T10:05:15.020Z,100457.16
2018-11-03T10:07:43.729Z,100452.88
2018-11-03T10:10:15.065Z,100453.87
2018-11-03T10:12:43.872Z,100460.09
2018-11-03T10:15:13.815Z,100459.70
2018-11-03T10:17:42.902Z,100456.27
2018-11-03T10:20:11.600Z,100460.25
2018-11-03T10:22:40.230Z,100463.45
2018-11-03T10:25:13.624Z,100459.75
2018-11-03T10:27:42.763Z,100455.34
2018-11-03T10:30:12.747Z,100467.95
2018-11-03T10:32:41.971Z,100462.48
2018-11-03T10:35:11.532Z,100468.06
2018-11-03T10:37:46.894Z,100470.20
2018-11-03T10:40:17.173Z,100473.27
2018-11-03T10:42:45.875Z,100477.62
2018-11-03T10:45:15.772Z,100463.28
2018-11-03T10:47:44.591Z,100467.20
2018-11-03T10:50:15.137Z,100461.36
2018-11-03T10:52:44.537Z,100462.11
2018-11-03T10:55:14.478Z,100458.64
2018-11-03T10:57:43.388Z,100458.30
2018-11-03T11:00:20.548Z,100460.20
2018-11-03T11:02:54.395Z,100452.14
2018-11-03T11:05:28.270Z,100446.84
2018-11-03T11:08:02.024Z,100440.67
2018-11-03T11:10:35.891Z,100437.10
2018-11-03T11:13:12.643Z,100435.33
2018-11-03T11:15:42.105Z,100438.77
2018-11-03T11:18:10.793Z,100439.69
2018-11-03T11:20:39.511Z,100446.87
2018-11-03T11:23:08.328Z,100439.25
2018-11-03T11:25:36.994Z,100448.20
2018-11-03T11:28:06.007Z,100444.77
2018-11-03T11:30:37.688Z,100451.36
2018-11-03T11:33:08.721Z,100445.83
2018-11-03T11:35:37.598Z,100453.67
2018-11-03T11:38:07.999Z,100445.19
2018-11-03T11:40:39.667Z,100438.58
2018-11-03T11:43:10.681Z,100442.22
2018-11-03T11:45:41.178Z,100434.53
2018-11-03T11:48:11.749Z,100432.41
2018-11-03T11:50:40.393Z,100442.09
2018-11-03T11:53:09.082Z,100438.78
2018-11-03T11:55:37.733Z,100440.28
2018-11-03T11:58:06.781Z,100435.95
2018-11-03T12:00:35.767Z,100429.94
2018-11-03T12:03:04.485Z,100430.79
2018-11-03T12:05:33.216Z,100419.73
2018-11-03T12:08:02.026Z,100427.06
2018-11-03T12:10:30.677Z,100424.00
2018-11-03T12:12:59.672Z,100422.80
2018-11-03T12:15:28.387Z,100414.11
2018-11-03T12:17:57.274Z,100406.70
2018-11-03T12:20:26.186Z,100405.48
2018-11-03T12:22:55.273Z,100404.13
2018-11-03T12:25:25.664Z,100410.58
2018-11-03T12:27:55.220Z,100398.42
2018-11-03T12:30:25.026Z,100400.14
2018-11-03T12:32:53.768Z,100401.72
2018-11-03T12:35:22.514Z,100402.78
2018-11-03T12:37:51.138Z,100410.81
2018-11-03T12:40:19.794Z,100405.90
2018-11-03T12:42:48.504Z,100398.09
2018-11-03T12:45:17.342Z,100404.38
2018-11-03T12:47:46.604Z,100403.58
2018-11-03T12:50:16.827Z,100405.92
2018-11-03T12:52:45.568Z,100402.84
2018-11-03T12:55:14.895Z,100403.96
2018-11-03T12:57:44.077Z,100402.41
2018-11-03T13:00:14.505Z,100399.09
2018-11-03T13:02:44.313Z,100401.73
2018-11-03T13:05:13.414Z,100401.59
2018-11-03T13:07:43.306Z,100400.50
2018-11-03T13:10:12.309Z,100396.93
2018-11-03T13:12:41.762Z,100402.59
2018-11-03T13:15:11.685Z,100400.44
2018-11-03T13:17:40.488Z,100400.74
2018-11-03T13:20:11.241Z,100404.25
2018-11-03T13:22:40.184Z,100406.84
2018-11-03T13:25:09.682Z,100405.34
2018-11-03T13:27:39.236Z,100409.94
2018-11-03T13:30:09.855Z,100404.24
2018-11-03T13:32:38.523Z,100407.59
2018-11-03T13:35:08.190Z,100402.91
2018-11-03T13:37:36.728Z,100400.48
2018-11-03T13:40:09.101Z,100401.41
2018-11-03T13:42:37.770Z,100410.53
2018-11-03T13:45:07.375Z,100405.42
2018-11-03T13:47:36.656Z,100407.46
2018-11-03T13:50:09.861Z,100404.14
2018-11-03T13:52:38.567Z,100410.63
2018-11-03T13:55:08.183Z,100405.44
2018-11-03T13:57:36.866Z,100404.47
2018-11-03T14:00:06.824Z,100406.28
2018-11-03T14:02:35.486Z,100408.05
2018-11-03T14:05:04.180Z,100404.72
2018-11-03T14:10:08.152Z,100407.09
2018-11-03T14:12:36.915Z,100402.72
2018-11-03T14:15:06.356Z,100391.42
2018-11-03T14:17:35.212Z,100394.84
2018-11-03T14:20:04.363Z,100393.78
2018-11-03T14:22:33.178Z,100397.48
2018-11-03T14:25:01.941Z,100386.22
2018-11-03T14:27:30.648Z,100394.59
2018-11-03T14:29:59.269Z,100396.58
2018-11-03T14:32:27.921Z,100398.18
2018-11-03T14:34:56.609Z,100400.05
2018-11-03T14:37:25.342Z,100400.45
2018-11-03T14:39:54.025Z,100400.28
2018-11-03T14:42:22.754Z,100402.22
2018-11-03T14:44:51.567Z,100406.62
2018-11-03T14:47:20.126Z,100407.15
2018-11-03T14:49:48.916Z,100409.34
2018-11-03T14:52:17.744Z,100410.09
2018-11-03T14:54:51.126Z,100406.87
2018-11-03T14:57:21.046Z,100409.58
2018-11-03T14:59:49.867Z,100413.10
2018-11-03T15:02:18.525Z,100414.30
2018-11-03T15:04:47.234Z,100415.87
2018-11-03T15:07:15.937Z,100416.02
2018-11-03T15:09:44.732Z,100417.68
2018-11-03T15:12:13.571Z,100410.05
2018-11-03T15:14:42.240Z,100411.05
2018-11-03T15:17:10.992Z,100407.33
2018-11-03T15:19:39.703Z,100414.66
2018-11-03T15:22:08.444Z,100414.27
2018-11-03T15:24:37.085Z,100421.61
2018-11-03T15:27:05.782Z,100422.12
2018-11-03T15:29:34.534Z,100428.48
2018-11-03T15:32:03.395Z,100426.75
2018-11-03T15:34:32.225Z,100416.20
2018-11-03T15:37:00.806Z,100414.92
2018-11-03T15:39:29.651Z,100414.36
2018-11-03T15:41:58.312Z,100410.97
2018-11-03T15:44:27.149Z,100407.63
2018-11-03T15:46:55.836Z,100405.58
2018-11-03T15:49:24.565Z,100406.86
2018-11-03T15:51:53.306Z,100407.76
2018-11-03T15:54:22.486Z,100412.05
2018-11-03T15:56:51.170Z,100412.00
2018-11-03T15:59:19.824Z,100412.00
2018-11-03T16:01:48.524Z,100409.55
2018-11-03T16:04:17.195Z,100408.23
2018-11-03T16:06:45.863Z,100408.62
2018-11-03T16:09:14.551Z,100401.49
2018-11-03T16:11:43.213Z,100404.53
2018-11-03T16:14:11.903Z,100411.39
2018-11-03T16:16:40.889Z,100404.49
2018-11-03T16:19:09.690Z,100406.59
2018-11-03T16:21:38.515Z,100401.11
2018-11-03T16:24:07.210Z,100405.39
2018-11-03T16:26:35.833Z,100400.80
2018-11-03T16:29:04.467Z,100400.33
2018-11-03T16:31:33.211Z,100408.08
2018-11-03T16:34:02.400Z,100407.18
2018-11-03T16:36:31.118Z,100411.00
2018-11-03T16:38:59.783Z,100417.44
2018-11-03T16:41:28.396Z,100409.84
2018-11-03T16:43:57.166Z,100404.69
2018-11-03T16:46:25.806Z,100409.84
2018-11-03T16:48:54.483Z,100414.51
2018-11-03T16:51:23.125Z,100410.22
2018-11-03T16:53:51.757Z,100409.72
2018-11-03T16:56:20.387Z,100411.94
2018-11-03T16:58:49.170Z,100417.12
2018-11-03T17:01:17.669Z,100408.98
2018-11-03T17:03:46.386Z,100415.52
2018-11-03T17:06:15.080Z,100409.24
2018-11-03T17:08:43.739Z,100410.52
2018-11-03T17:11:12.874Z,100405.73
2018-11-03T17:13:41.671Z,100407.38
2018-11-03T17:16:10.753Z,100410.95
2018-11-03T17:18:39.475Z,100405.03
2018-11-03T17:21:08.112Z,100402.85
2018-11-03T17:23:36.886Z,100410.88
2018-11-03T17:26:05.883Z,100405.66
2018-11-03T17:28:34.629Z,100411.66
2018-11-03T17:31:03.676Z,100404.92
2018-11-03T17:33:32.327Z,100404.09
2018-11-03T17:36:00.981Z,100400.35
2018-11-03T17:38:29.654Z,100409.23
2018-11-03T17:40:58.279Z,100405.81
2018-11-03T17:43:26.968Z,100410.53
2018-11-03T17:45:55.634Z,100410.88
2018-11-03T17:48:24.770Z,100405.78
2018-11-03T17:50:53.374Z,100400.67
2018-11-03T17:53:22.014Z,100400.17
2018-11-03T17:55:50.675Z,100403.20
2018-11-03T17:58:19.352Z,100397.06
2018-11-03T18:00:48.032Z,100400.05
2018-11-03T18:03:16.642Z,100395.30
2018-11-03T18:05:45.305Z,100397.98
2018-11-03T18:08:14.033Z,100401.34
2018-11-03T18:10:42.771Z,100392.03
2018-11-03T18:13:11.463Z,100384.74
2018-11-03T18:15:40.129Z,100379.48
2018-11-03T18:18:08.810Z,100385.99
2018-11-03T18:20:37.431Z,100380.85
2018-11-03T18:23:07.390Z,100384.35
2018-11-03T18:25:36.012Z,100381.28
2018-11-03T18:28:04.650Z,100386.92
2018-11-03T18:30:33.349Z,100379.25
2018-11-03T18:33:02.060Z,100375.47
2018-11-03T18:35:30.651Z,100373.80
2018-11-03T18:37:59.505Z,100369.94
2018-11-03T18:40:28.146Z,100370.69
2018-11-03T18:42:56.782Z,100365.12
2018-11-03T18:45:25.595Z,100356.42
2018-11-03T18:47:54.296Z,100361.19
2018-11-03T18:50:22.943Z,100362.04
2018-11-03T18:52:51.656Z,100360.41
2018-11-03T18:55:20.289Z,100361.10
2018-11-03T18:57:49.011Z,100372.28
2018-11-03T19:00:17.808Z,100369.02
2018-11-03T19:02:46.513Z,100372.36
2018-11-03T19:05:15.418Z,100375.28
2018-11-03T19:07:44.137Z,100377.89
2018-11-03T19:10:12.862Z,100375.28
2018-11-03T19:12:41.734Z,100372.87
2018-11-03T19:15:11.186Z,100373.44
2018-11-03T19:17:40.091Z,100370.73
2018-11-03T19:20:11.454Z,100377.54
2018-11-03T19:22:40.441Z,100372.08
2018-11-03T19:25:11.079Z,100371.19
2018-11-03T19:27:39.992Z,100377.19
2018-11-03T19:30:10.597Z,100372.66
2018-11-03T19:32:40.257Z,100375.23
2018-11-03T19:35:09.230Z,100377.86
2018-11-03T19:37:38.085Z,100373.91
2018-11-03T19:40:07.688Z,100381.19
2018-11-03T19:42:36.396Z,100371.83
2018-11-03T19:45:05.247Z,100372.23
2018-11-03T19:47:34.740Z,100375.30
2018-11-03T19:50:03.510Z,100372.66
2018-11-03T19:52:32.558Z,100374.44
2018-11-03T19:55:01.214Z,100374.47
2018-11-03T19:57:30.184Z,100370.23
2018-11-03T19:59:58.884Z,100366.73
2018-11-03T20:02:27.659Z,100367.62
2018-11-03T20:04:56.395Z,100371.91
2018-11-03T20:07:25.221Z,100363.27
2018-11-03T20:09:54.057Z,100363.73
2018-11-03T20:12:24.178Z,100361.66
2018-11-03T20:14:53.670Z,100368.38
2018-11-03T20:17:23.007Z,100375.72
2018-11-03T20:19:51.805Z,100367.59
2018-11-03T20:22:20.546Z,100364.06
2018-11-03T20:24:50.042Z,100371.80
2018-11-03T20:27:19.128Z,100371.88
2018-11-03T20:29:48.195Z,100365.91
2018-11-03T20:32:17.396Z,100365.84
2018-11-03T20:34:46.493Z,100367.59
2018-11-03T20:37:15.337Z,100356.53
2018-11-03T20:39:44.203Z,100358.30
2018-11-03T20:42:13.131Z,100356.53
2018-11-03T20:44:42.823Z,100355.59
2018-11-03T20:47:11.535Z,100356.88
2018-11-03T20:49:40.522Z,100352.95
2018-11-03T20:52:09.482Z,100358.17
2018-11-03T20:54:38.203Z,100358.73
2018-11-03T20:57:07.004Z,100356.88
2018-11-03T20:59:36.462Z,100363.84
2018-11-03T21:02:05.269Z,100359.20
2018-11-03T21:04:34.079Z,100359.16
2018-11-03T21:07:02.938Z,100356.70
2018-11-03T21:09:31.796Z,100358.77
2018-11-03T21:12:00.538Z,100358.70
2018-11-03T21:14:29.219Z,100356.98
2018-11-03T21:16:58.005Z,100348.50
2018-11-03T21:19:26.785Z,100342.93
2018-11-03T21:21:55.547Z,100348.92
2018-11-03T21:24:24.391Z,100342.14
2018-11-03T21:26:53.185Z,100342.11
2018-11-03T21:29:21.909Z,100343.88
2018-11-03T21:31:51.859Z,100340.83
2018-11-03T21:34:20.887Z,100338.25
2018-11-03T21:36:49.548Z,100331.44
2018-11-03T21:39:18.350Z,100326.83
2018-11-03T21:41:47.088Z,100331.08
2018-11-03T21:44:15.777Z,100319.48
2018-11-03T21:46:44.558Z,100322.95
2018-11-03T21:49:13.418Z,100311.81
2018-11-03T21:51:42.113Z,100308.10
2018-11-03T21:54:10.969Z,100301.22
2018-11-03T21:56:39.659Z,100302.08
2018-11-03T21:59:08.388Z,100306.82
2018-11-03T22:01:37.166Z,100302.57
2018-11-03T22:04:05.963Z,100303.86
2018-11-03T22:06:34.657Z,100299.58
2018-11-03T22:09:03.552Z,100294.51
2018-11-03T22:11:35.193Z,100299.67
2018-11-03T22:14:03.876Z,100294.14
2018-11-03T22:16:32.545Z,100289.90
2018-11-03T22:19:01.214Z,100282.59
2018-11-03T22:21:30.905Z,100287.83
2018-11-03T22:24:00.255Z,100296.80
2018-11-03T22:26:29.076Z,100289.23
2018-11-03T22:28:58.001Z,100290.52
2018-11-03T22:31:27.337Z,100283.97
2018-11-03T22:33:56.618Z,100288.77
2018-11-03T22:36:25.502Z,100285.44
2018-11-03T22:38:54.184Z,100278.14
2018-11-03T22:41:23.078Z,100277.41
2018-11-03T22:43:52.041Z,100267.11
2018-11-03T22:46:20.755Z,100263.59
2018-11-03T22:48:49.408Z,100270.93
2018-11-03T22:51:18.179Z,100257.25
2018-11-03T22:53:46.922Z,100256.39
2018-11-03T22:56:15.770Z,100253.40
2018-11-03T22:58:44.487Z,100261.13
2018-11-03T23:01:13.121Z,100240.17
2018-11-03T23:03:41.861Z,100248.81
2018-11-03T23:06:10.561Z,100248.47
2018-11-03T23:08:39.275Z,100245.99
2018-11-03T23:11:08.026Z,100245.94
2018-11-03T23:13:36.774Z,100242.92
2018-11-03T23:16:05.698Z,100242.48
2018-11-03T23:18:34.331Z,100245.45
2018-11-03T23:21:03.139Z,100239.52
2018-11-03T23:23:31.860Z,100232.72
2018-11-03T23:26:00.629Z,100233.48
2018-11-03T23:28:29.519Z,100233.12
2018-11-03T23:30:58.237Z,100227.62
2018-11-03T23:33:26.986Z,100227.59
2018-11-03T23:35:55.744Z,100224.20
2018-11-03T23:38:24.403Z,100222.80
2018-11-03T23:40:53.108Z,100223.28
2018-11-03T23:43:21.802Z,100210.94
2018-11-03T23:45:50.982Z,100205.76
2018-11-03T23:48:19.733Z,100204.50
2018-11-03T23:50:48.446Z,100204.02
2018-11-03T23:53:17.292Z,100201.02
2018-11-03T23:55:45.912Z,100201.45
2018-11-03T23:58:14.577Z,100202.73
